sensor_id;sensor_type;location;lat;lon;timestamp;P1;durP1;ratioP1;P2;durP2;ratioP2
7365;SDS011;3723;52.220;8.792;2023-07-16T00:01:11;72.27;;;15.67;;
7365;SDS011;3723;52.220;8.792;2023-07-16T00:03:38;74.73;;;17.70;;
7365;SDS011;3723;52.220;8.792;2023-07-16T00:06:23;73.10;;;18.17;;
7365;SDS011;3723;52.220;8.792;2023-07-16T00:08:51;73.23;;;18.80;;
7365;SDS011;3723;52.220;8.792;2023-07-16T00:11:24;73.37;;;17.10;;
7365;SDS011;3723;52.220;8.792;2023-07-16T00:13:54;74.10;;;20.13;;
7365;SDS011;3723;52.220;8.792;2023-07-16T00:19:14;73.17;;;18.70;;
7365;SDS011;3723;52.220;8.792;2023-07-16T00:21:47;73.97;;;18.47;;
7365;SDS011;3723;52.220;8.792;2023-07-16T00:24:14;70.77;;;15.93;;
7365;SDS011;3723;52.220;8.792;2023-07-16T00:39:58;65.80;;;5.00;;
7365;SDS011;3723;52.220;8.792;2023-07-16T00:42:44;59.73;;;3.40;;
7365;SDS011;3723;52.220;8.792;2023-07-16T00:45:13;62.83;;;3.83;;
7365;SDS011;3723;52.220;8.792;2023-07-16T00:50:39;62.07;;;4.23;;
7365;SDS011;3723;52.220;8.792;2023-07-16T00:53:08;60.07;;;3.50;;
7365;SDS011;3723;52.220;8.792;2023-07-16T00:55:49;60.10;;;3.33;;
7365;SDS011;3723;52.220;8.792;2023-07-16T00:58:28;60.27;;;3.73;;
7365;SDS011;3723;52.220;8.792;2023-07-16T01:01:14;61.67;;;5.50;;
7365;SDS011;3723;52.220;8.792;2023-07-16T01:04:22;62.77;;;3.83;;
7365;SDS011;3723;52.220;8.792;2023-07-16T01:07:30;60.40;;;4.13;;
7365;SDS011;3723;52.220;8.792;2023-07-16T01:10:03;60.60;;;4.00;;
7365;SDS011;3723;52.220;8.792;2023-07-16T01:12:39;60.80;;;3.57;;
7365;SDS011;3723;52.220;8.792;2023-07-16T01:18:27;61.00;;;3.63;;
7365;SDS011;3723;52.220;8.792;2023-07-16T01:21:04;60.10;;;3.30;;
7365;SDS011;3723;52.220;8.792;2023-07-16T01:23:50;59.17;;;3.00;;
7365;SDS011;3723;52.220;8.792;2023-07-16T01:27:14;58.47;;;3.10;;
7365;SDS011;3723;52.220;8.792;2023-07-16T01:30:02;56.80;;;2.30;;
7365;SDS011;3723;52.220;8.792;2023-07-16T01:32:48;57.60;;;2.53;;
7365;SDS011;3723;52.220;8.792;2023-07-16T01:45:33;58.43;;;2.90;;
7365;SDS011;3723;52.220;8.792;2023-07-16T01:48:04;61.30;;;4.20;;
7365;SDS011;3723;52.220;8.792;2023-07-16T01:51:27;59.03;;;3.00;;
7365;SDS011;3723;52.220;8.792;2023-07-16T01:57:32;62.60;;;3.30;;
7365;SDS011;3723;52.220;8.792;2023-07-16T02:00:13;60.87;;;3.30;;
7365;SDS011;3723;52.220;8.792;2023-07-16T02:02:50;63.57;;;3.20;;
7365;SDS011;3723;52.220;8.792;2023-07-16T02:05:27;63.33;;;3.97;;
7365;SDS011;3723;52.220;8.792;2023-07-16T02:08:11;62.57;;;3.77;;
7365;SDS011;3723;52.220;8.792;2023-07-16T02:10:44;79.23;;;4.57;;
7365;SDS011;3723;52.220;8.792;2023-07-16T02:16:11;62.47;;;3.47;;
7365;SDS011;3723;52.220;8.792;2023-07-16T02:18:56;60.37;;;3.07;;
7365;SDS011;3723;52.220;8.792;2023-07-16T02:24:48;59.70;;;3.20;;
7365;SDS011;3723;52.220;8.792;2023-07-16T02:27:18;60.17;;;3.00;;
7365;SDS011;3723;52.220;8.792;2023-07-16T02:29:50;60.00;;;3.00;;
7365;SDS011;3723;52.220;8.792;2023-07-16T02:32:26;58.57;;;2.60;;
7365;SDS011;3723;52.220;8.792;2023-07-16T02:35:20;57.90;;;2.40;;
7365;SDS011;3723;52.220;8.792;2023-07-16T02:38:11;57.50;;;2.53;;
7365;SDS011;3723;52.220;8.792;2023-07-16T02:40:44;58.00;;;2.60;;
7365;SDS011;3723;52.220;8.792;2023-07-16T02:43:20;56.90;;;2.30;;
7365;SDS011;3723;52.220;8.792;2023-07-16T02:46:26;61.47;;;2.73;;
7365;SDS011;3723;52.220;8.792;2023-07-16T02:48:53;55.90;;;2.33;;
7365;SDS011;3723;52.220;8.792;2023-07-16T02:51:26;56.97;;;2.67;;
7365;SDS011;3723;52.220;8.792;2023-07-16T02:53:56;59.17;;;2.33;;
7365;SDS011;3723;52.220;8.792;2023-07-16T02:56:31;57.00;;;2.60;;
7365;SDS011;3723;52.220;8.792;2023-07-16T02:58:59;58.70;;;3.20;;
7365;SDS011;3723;52.220;8.792;2023-07-16T03:01:42;57.77;;;2.60;;
7365;SDS011;3723;52.220;8.792;2023-07-16T03:04:22;55.93;;;2.23;;
7365;SDS011;3723;52.220;8.792;2023-07-16T03:06:54;53.77;;;2.20;;
7365;SDS011;3723;52.220;8.792;2023-07-16T03:09:25;54.70;;;3.33;;
7365;SDS011;3723;52.220;8.792;2023-07-16T03:11:53;51.27;;;2.40;;
7365;SDS011;3723;52.220;8.792;2023-07-16T03:17:59;51.27;;;2.90;;
7365;SDS011;3723;52.220;8.792;2023-07-16T03:20:27;48.03;;;3.13;;
7365;SDS011;3723;52.220;8.792;2023-07-16T03:23:11;46.17;;;3.60;;
7365;SDS011;3723;52.220;8.792;2023-07-16T03:25:44;43.33;;;3.57;;
7365;SDS011;3723;52.220;8.792;2023-07-16T03:28:14;43.03;;;3.50;;
7365;SDS011;3723;52.220;8.792;2023-07-16T03:30:56;40.60;;;3.03;;
7365;SDS011;3723;52.220;8.792;2023-07-16T03:33:50;39.30;;;3.23;;
7365;SDS011;3723;52.220;8.792;2023-07-16T03:36:22;40.00;;;2.87;;
7365;SDS011;3723;52.220;8.792;2023-07-16T03:38:51;45.77;;;0.70;;
7365;SDS011;3723;52.220;8.792;2023-07-16T03:41:18;46.47;;;0.80;;
7365;SDS011;3723;52.220;8.792;2023-07-16T03:43:50;47.80;;;0.70;;
7365;SDS011;3723;52.220;8.792;2023-07-16T03:46:17;49.50;;;0.80;;
7365;SDS011;3723;52.220;8.792;2023-07-16T03:48:47;49.60;;;0.80;;
7365;SDS011;3723;52.220;8.792;2023-07-16T03:54:14;49.53;;;0.70;;
7365;SDS011;3723;52.220;8.792;2023-07-16T04:03:41;49.70;;;0.70;;
7365;SDS011;3723;52.220;8.792;2023-07-16T04:12:25;49.40;;;0.80;;
7365;SDS011;3723;52.220;8.792;2023-07-16T04:14:54;50.70;;;0.80;;
7365;SDS011;3723;52.220;8.792;2023-07-16T04:17:25;51.10;;;0.80;;
7365;SDS011;3723;52.220;8.792;2023-07-16T04:19:58;50.40;;;0.80;;
7365;SDS011;3723;52.220;8.792;2023-07-16T04:22:32;50.77;;;0.80;;
7365;SDS011;3723;52.220;8.792;2023-07-16T04:25:01;50.50;;;0.80;;
7365;SDS011;3723;52.220;8.792;2023-07-16T04:27:35;51.00;;;0.80;;
7365;SDS011;3723;52.220;8.792;2023-07-16T04:30:02;52.57;;;1.17;;
7365;SDS011;3723;52.220;8.792;2023-07-16T04:32:30;56.17;;;2.80;;
7365;SDS011;3723;52.220;8.792;2023-07-16T04:34:57;57.60;;;3.20;;
7365;SDS011;3723;52.220;8.792;2023-07-16T04:37:29;58.13;;;2.57;;
7365;SDS011;3723;52.220;8.792;2023-07-16T04:39:58;59.93;;;1.80;;
7365;SDS011;3723;52.220;8.792;2023-07-16T04:42:26;61.67;;;1.70;;
7365;SDS011;3723;52.220;8.792;2023-07-16T04:44:53;63.90;;;2.37;;
7365;SDS011;3723;52.220;8.792;2023-07-16T04:47:20;65.40;;;2.00;;
7365;SDS011;3723;52.220;8.792;2023-07-16T04:49:47;67.07;;;1.33;;
7365;SDS011;3723;52.220;8.792;2023-07-16T04:52:14;67.90;;;1.20;;
7365;SDS011;3723;52.220;8.792;2023-07-16T04:54:45;73.57;;;10.20;;
7365;SDS011;3723;52.220;8.792;2023-07-16T04:57:13;82.77;;;30.10;;
7365;SDS011;3723;52.220;8.792;2023-07-16T04:59:42;83.60;;;35.40;;
7365;SDS011;3723;52.220;8.792;2023-07-16T05:02:12;86.97;;;42.70;;
7365;SDS011;3723;52.220;8.792;2023-07-16T05:04:43;90.23;;;49.93;;
7365;SDS011;3723;52.220;8.792;2023-07-16T05:07:48;88.47;;;49.67;;
7365;SDS011;3723;52.220;8.792;2023-07-16T05:10:05;79.67;;;37.83;;
7365;SDS011;3723;52.220;8.792;2023-07-16T05:12:33;75.47;;;29.50;;
7365;SDS011;3723;52.220;8.792;2023-07-16T05:15:02;69.83;;;21.40;;
7365;SDS011;3723;52.220;8.792;2023-07-16T05:17:30;71.27;;;22.40;;
7365;SDS011;3723;52.220;8.792;2023-07-16T05:19:59;67.70;;;18.30;;
7365;SDS011;3723;52.220;8.792;2023-07-16T05:22:29;66.13;;;18.33;;
7365;SDS011;3723;52.220;8.792;2023-07-16T05:24:59;61.87;;;12.67;;
7365;SDS011;3723;52.220;8.792;2023-07-16T05:27:29;56.50;;;2.63;;
7365;SDS011;3723;52.220;8.792;2023-07-16T05:29:57;56.07;;;0.70;;
7365;SDS011;3723;52.220;8.792;2023-07-16T05:32:25;57.43;;;0.90;;
7365;SDS011;3723;52.220;8.792;2023-07-16T05:34:53;58.63;;;1.00;;
7365;SDS011;3723;52.220;8.792;2023-07-16T05:37:23;59.50;;;1.20;;
7365;SDS011;3723;52.220;8.792;2023-07-16T05:39:50;59.57;;;0.90;;
7365;SDS011;3723;52.220;8.792;2023-07-16T05:42:17;60.33;;;1.00;;
7365;SDS011;3723;52.220;8.792;2023-07-16T05:44:44;62.00;;;2.23;;
7365;SDS011;3723;52.220;8.792;2023-07-16T05:47:19;62.50;;;1.83;;
7365;SDS011;3723;52.220;8.792;2023-07-16T05:49:48;62.37;;;2.30;;
7365;SDS011;3723;52.220;8.792;2023-07-16T05:52:16;61.23;;;1.50;;
7365;SDS011;3723;52.220;8.792;2023-07-16T05:54:44;62.40;;;3.57;;
7365;SDS011;3723;52.220;8.792;2023-07-16T05:57:11;67.40;;;6.80;;
7365;SDS011;3723;52.220;8.792;2023-07-16T05:59:58;82.67;;;27.43;;
7365;SDS011;3723;52.220;8.792;2023-07-16T06:02:25;83.00;;;29.20;;
7365;SDS011;3723;52.220;8.792;2023-07-16T06:04:53;82.37;;;28.30;;
7365;SDS011;3723;52.220;8.792;2023-07-16T06:07:20;86.67;;;32.53;;
7365;SDS011;3723;52.220;8.792;2023-07-16T06:09:47;88.73;;;35.60;;
7365;SDS011;3723;52.220;8.792;2023-07-16T06:12:14;91.20;;;34.50;;
7365;SDS011;3723;52.220;8.792;2023-07-16T06:14:51;95.60;;;37.80;;
7365;SDS011;3723;52.220;8.792;2023-07-16T06:17:18;94.10;;;34.47;;
7365;SDS011;3723;52.220;8.792;2023-07-16T06:19:45;96.87;;;39.37;;
7365;SDS011;3723;52.220;8.792;2023-07-16T06:22:18;94.47;;;35.47;;
7365;SDS011;3723;52.220;8.792;2023-07-16T06:24:48;94.33;;;35.03;;
7365;SDS011;3723;52.220;8.792;2023-07-16T06:27:15;96.13;;;39.20;;
7365;SDS011;3723;52.220;8.792;2023-07-16T06:29:42;94.23;;;36.37;;
7365;SDS011;3723;52.220;8.792;2023-07-16T06:32:12;91.47;;;31.40;;
7365;SDS011;3723;52.220;8.792;2023-07-16T06:34:38;91.37;;;24.43;;
7365;SDS011;3723;52.220;8.792;2023-07-16T06:37:05;89.77;;;17.07;;
7365;SDS011;3723;52.220;8.792;2023-07-16T06:39:33;86.70;;;9.80;;
7365;SDS011;3723;52.220;8.792;2023-07-16T06:42:00;87.10;;;8.80;;
7365;SDS011;3723;52.220;8.792;2023-07-16T06:44:28;87.30;;;10.30;;
7365;SDS011;3723;52.220;8.792;2023-07-16T06:46:54;90.67;;;14.60;;
7365;SDS011;3723;52.220;8.792;2023-07-16T06:49:22;93.70;;;18.57;;
7365;SDS011;3723;52.220;8.792;2023-07-16T06:51:49;107.30;;;23.23;;
7365;SDS011;3723;52.220;8.792;2023-07-16T06:54:16;90.40;;;12.00;;
7365;SDS011;3723;52.220;8.792;2023-07-16T06:56:44;88.77;;;9.70;;
7365;SDS011;3723;52.220;8.792;2023-07-16T06:59:11;90.00;;;12.50;;
7365;SDS011;3723;52.220;8.792;2023-07-16T07:01:38;96.17;;;19.47;;
7365;SDS011;3723;52.220;8.792;2023-07-16T07:04:05;91.50;;;11.30;;
7365;SDS011;3723;52.220;8.792;2023-07-16T07:06:32;114.97;;;46.50;;
7365;SDS011;3723;52.220;8.792;2023-07-16T07:08:59;111.57;;;47.43;;
7365;SDS011;3723;52.220;8.792;2023-07-16T07:11:25;139.23;;;100.37;;
7365;SDS011;3723;52.220;8.792;2023-07-16T07:13:54;151.57;;;122.87;;
7365;SDS011;3723;52.220;8.792;2023-07-16T07:16:22;273.53;;;248.20;;
7365;SDS011;3723;52.220;8.792;2023-07-16T07:18:49;157.60;;;75.40;;
7365;SDS011;3723;52.220;8.792;2023-07-16T07:21:16;179.30;;;127.63;;
7365;SDS011;3723;52.220;8.792;2023-07-16T07:23:43;299.50;;;271.20;;
7365;SDS011;3723;52.220;8.792;2023-07-16T07:26:10;187.40;;;148.33;;
7365;SDS011;3723;52.220;8.792;2023-07-16T07:28:37;208.93;;;179.57;;
7365;SDS011;3723;52.220;8.792;2023-07-16T07:31:05;206.60;;;177.93;;
7365;SDS011;3723;52.220;8.792;2023-07-16T07:33:32;304.77;;;276.27;;
7365;SDS011;3723;52.220;8.792;2023-07-16T07:36:01;182.93;;;136.53;;
7365;SDS011;3723;52.220;8.792;2023-07-16T07:38:28;339.77;;;309.43;;
7365;SDS011;3723;52.220;8.792;2023-07-16T07:40:55;200.27;;;178.97;;
7365;SDS011;3723;52.220;8.792;2023-07-16T07:43:22;134.80;;;55.03;;
7365;SDS011;3723;52.220;8.792;2023-07-16T07:45:49;112.90;;;38.80;;
7365;SDS011;3723;52.220;8.792;2023-07-16T07:48:17;141.97;;;82.40;;
7365;SDS011;3723;52.220;8.792;2023-07-16T07:50:46;195.57;;;174.20;;
7365;SDS011;3723;52.220;8.792;2023-07-16T07:53:13;160.43;;;95.33;;
7365;SDS011;3723;52.220;8.792;2023-07-16T07:55:43;162.23;;;99.33;;
7365;SDS011;3723;52.220;8.792;2023-07-16T07:58:10;179.20;;;130.30;;
7365;SDS011;3723;52.220;8.792;2023-07-16T08:00:37;194.80;;;167.27;;
7365;SDS011;3723;52.220;8.792;2023-07-16T08:03:04;416.83;;;381.03;;
7365;SDS011;3723;52.220;8.792;2023-07-16T08:05:32;180.93;;;137.43;;
7365;SDS011;3723;52.220;8.792;2023-07-16T08:07:59;276.73;;;249.97;;
7365;SDS011;3723;52.220;8.792;2023-07-16T08:10:26;392.97;;;358.40;;
7365;SDS011;3723;52.220;8.792;2023-07-16T08:12:53;244.93;;;220.73;;
7365;SDS011;3723;52.220;8.792;2023-07-16T08:15:20;219.40;;;195.57;;
7365;SDS011;3723;52.220;8.792;2023-07-16T08:17:47;218.73;;;194.27;;
7365;SDS011;3723;52.220;8.792;2023-07-16T08:20:14;382.47;;;349.50;;
7365;SDS011;3723;52.220;8.792;2023-07-16T08:22:42;620.50;;;571.80;;
7365;SDS011;3723;52.220;8.792;2023-07-16T08:25:09;628.30;;;578.53;;
7365;SDS011;3723;52.220;8.792;2023-07-16T08:27:36;723.47;;;669.00;;
7365;SDS011;3723;52.220;8.792;2023-07-16T08:30:05;617.97;;;569.60;;
7365;SDS011;3723;52.220;8.792;2023-07-16T08:32:33;668.43;;;617.77;;
7365;SDS011;3723;52.220;8.792;2023-07-16T08:34:59;731.90;;;676.50;;
7365;SDS011;3723;52.220;8.792;2023-07-16T08:37:26;687.30;;;635.07;;
7365;SDS011;3723;52.220;8.792;2023-07-16T08:39:55;672.53;;;621.40;;
7365;SDS011;3723;52.220;8.792;2023-07-16T08:42:22;626.63;;;579.03;;
7365;SDS011;3723;52.220;8.792;2023-07-16T08:44:50;420.90;;;385.80;;
7365;SDS011;3723;52.220;8.792;2023-07-16T08:47:17;266.07;;;241.40;;
7365;SDS011;3723;52.220;8.792;2023-07-16T08:49:46;183.20;;;161.27;;
7365;SDS011;3723;52.220;8.792;2023-07-16T08:52:20;383.67;;;351.73;;
7365;SDS011;3723;52.220;8.792;2023-07-16T08:54:46;309.30;;;281.90;;
7365;SDS011;3723;52.220;8.792;2023-07-16T08:57:15;108.20;;;61.83;;
7365;SDS011;3723;52.220;8.792;2023-07-16T08:59:42;240.07;;;216.90;;
7365;SDS011;3723;52.220;8.792;2023-07-16T09:02:10;361.03;;;330.03;;
7365;SDS011;3723;52.220;8.792;2023-07-16T09:04:38;711.33;;;658.47;;
7365;SDS011;3723;52.220;8.792;2023-07-16T09:07:05;630.27;;;580.17;;
7365;SDS011;3723;52.220;8.792;2023-07-16T09:09:32;203.70;;;171.87;;
7365;SDS011;3723;52.220;8.792;2023-07-16T09:11:59;299.40;;;271.30;;
7365;SDS011;3723;52.220;8.792;2023-07-16T09:14:27;150.63;;;66.50;;
7365;SDS011;3723;52.220;8.792;2023-07-16T09:16:56;292.70;;;265.07;;
7365;SDS011;3723;52.220;8.792;2023-07-16T09:19:24;171.73;;;110.60;;
7365;SDS011;3723;52.220;8.792;2023-07-16T09:21:52;332.73;;;302.43;;
7365;SDS011;3723;52.220;8.792;2023-07-16T09:24:20;398.57;;;364.97;;
7365;SDS011;3723;52.220;8.792;2023-07-16T09:26:47;684.90;;;631.97;;
7365;SDS011;3723;52.220;8.792;2023-07-16T09:29:15;378.03;;;344.97;;
7365;SDS011;3723;52.220;8.792;2023-07-16T09:31:56;243.40;;;218.50;;
7365;SDS011;3723;52.220;8.792;2023-07-16T09:34:27;202.13;;;170.13;;
7365;SDS011;3723;52.220;8.792;2023-07-16T09:36:55;205.00;;;170.87;;
7365;SDS011;3723;52.220;8.792;2023-07-16T09:39:25;234.47;;;210.50;;
7365;SDS011;3723;52.220;8.792;2023-07-16T09:41:59;187.03;;;141.80;;
7365;SDS011;3723;52.220;8.792;2023-07-16T09:44:30;181.70;;;134.20;;
7365;SDS011;3723;52.220;8.792;2023-07-16T09:47:04;527.77;;;485.77;;
7365;SDS011;3723;52.220;8.792;2023-07-16T09:49:37;645.70;;;595.87;;
7365;SDS011;3723;52.220;8.792;2023-07-16T09:52:04;411.63;;;376.13;;
7365;SDS011;3723;52.220;8.792;2023-07-16T09:54:33;663.03;;;612.30;;
7365;SDS011;3723;52.220;8.792;2023-07-16T09:57:03;495.20;;;453.70;;
7365;SDS011;3723;52.220;8.792;2023-07-16T09:59:31;540.37;;;496.63;;
7365;SDS011;3723;52.220;8.792;2023-07-16T10:02:01;449.70;;;412.23;;
7365;SDS011;3723;52.220;8.792;2023-07-16T10:04:37;613.73;;;566.47;;
7365;SDS011;3723;52.220;8.792;2023-07-16T10:07:04;710.87;;;657.33;;
7365;SDS011;3723;52.220;8.792;2023-07-16T10:09:32;594.57;;;549.27;;
7365;SDS011;3723;52.220;8.792;2023-07-16T10:12:15;204.13;;;182.20;;
7365;SDS011;3723;52.220;8.792;2023-07-16T10:14:45;109.90;;;55.73;;
7365;SDS011;3723;52.220;8.792;2023-07-16T10:17:15;370.47;;;338.53;;
7365;SDS011;3723;52.220;8.792;2023-07-16T10:19:47;159.57;;;131.67;;
7365;SDS011;3723;52.220;8.792;2023-07-16T10:22:15;94.53;;;23.50;;
7365;SDS011;3723;52.220;8.792;2023-07-16T10:24:51;98.00;;;35.60;;
7365;SDS011;3723;52.220;8.792;2023-07-16T10:27:29;105.20;;;57.50;;
7365;SDS011;3723;52.220;8.792;2023-07-16T10:29:58;83.53;;;14.40;;
7365;SDS011;3723;52.220;8.792;2023-07-16T10:32:28;91.30;;;19.60;;
7365;SDS011;3723;52.220;8.792;2023-07-16T10:35:03;112.10;;;59.17;;
7365;SDS011;3723;52.220;8.792;2023-07-16T10:37:31;138.80;;;100.13;;
7365;SDS011;3723;52.220;8.792;2023-07-16T10:39:59;168.57;;;150.07;;
7365;SDS011;3723;52.220;8.792;2023-07-16T10:42:31;133.23;;;93.73;;
7365;SDS011;3723;52.220;8.792;2023-07-16T10:45:02;108.47;;;55.73;;
7365;SDS011;3723;52.220;8.792;2023-07-16T10:47:38;80.03;;;8.87;;
7365;SDS011;3723;52.220;8.792;2023-07-16T10:50:08;96.67;;;24.63;;
7365;SDS011;3723;52.220;8.792;2023-07-16T10:52:36;129.23;;;85.90;;
7365;SDS011;3723;52.220;8.792;2023-07-16T10:55:12;78.80;;;4.37;;
7365;SDS011;3723;52.220;8.792;2023-07-16T10:57:47;101.73;;;38.17;;
7365;SDS011;3723;52.220;8.792;2023-07-16T11:00:15;115.50;;;60.57;;
7365;SDS011;3723;52.220;8.792;2023-07-16T11:02:45;393.40;;;359.67;;
7365;SDS011;3723;52.220;8.792;2023-07-16T11:05:12;213.23;;;191.83;;
7365;SDS011;3723;52.220;8.792;2023-07-16T11:07:42;119.63;;;71.00;;
7365;SDS011;3723;52.220;8.792;2023-07-16T11:10:10;313.83;;;285.43;;
7365;SDS011;3723;52.220;8.792;2023-07-16T11:12:37;370.87;;;338.80;;
7365;SDS011;3723;52.220;8.792;2023-07-16T11:15:04;501.80;;;461.70;;
7365;SDS011;3723;52.220;8.792;2023-07-16T11:17:32;118.27;;;70.20;;
7365;SDS011;3723;52.220;8.792;2023-07-16T11:20:00;102.17;;;37.93;;
7365;SDS011;3723;52.220;8.792;2023-07-16T11:22:29;85.37;;;18.20;;
7365;SDS011;3723;52.220;8.792;2023-07-16T11:24:57;92.03;;;16.13;;
7365;SDS011;3723;52.220;8.792;2023-07-16T11:27:25;125.60;;;72.03;;
7365;SDS011;3723;52.220;8.792;2023-07-16T11:32:36;124.53;;;76.47;;
7365;SDS011;3723;52.220;8.792;2023-07-16T11:35:08;153.90;;;123.10;;
7365;SDS011;3723;52.220;8.792;2023-07-16T11:37:37;689.00;;;637.43;;
7365;SDS011;3723;52.220;8.792;2023-07-16T11:40:06;198.00;;;177.97;;
7365;SDS011;3723;52.220;8.792;2023-07-16T11:42:35;92.40;;;31.97;;
7365;SDS011;3723;52.220;8.792;2023-07-16T11:45:05;117.23;;;62.93;;
7365;SDS011;3723;52.220;8.792;2023-07-16T11:47:44;159.70;;;132.07;;
7365;SDS011;3723;52.220;8.792;2023-07-16T11:50:15;389.53;;;356.50;;
7365;SDS011;3723;52.220;8.792;2023-07-16T11:52:42;241.37;;;217.50;;
7365;SDS011;3723;52.220;8.792;2023-07-16T11:55:09;77.87;;;9.43;;
7365;SDS011;3723;52.220;8.792;2023-07-16T11:57:36;103.40;;;39.73;;
7365;SDS011;3723;52.220;8.792;2023-07-16T12:00:03;82.67;;;10.43;;
7365;SDS011;3723;52.220;8.792;2023-07-16T12:02:32;282.57;;;255.97;;
7365;SDS011;3723;52.220;8.792;2023-07-16T12:05:01;467.43;;;429.77;;
7365;SDS011;3723;52.220;8.792;2023-07-16T12:07:32;552.20;;;508.93;;
7365;SDS011;3723;52.220;8.792;2023-07-16T12:10:00;228.50;;;206.00;;
7365;SDS011;3723;52.220;8.792;2023-07-16T12:12:28;78.97;;;5.73;;
7365;SDS011;3723;52.220;8.792;2023-07-16T12:14:58;81.37;;;7.63;;
7365;SDS011;3723;52.220;8.792;2023-07-16T12:17:29;113.33;;;58.40;;
7365;SDS011;3723;52.220;8.792;2023-07-16T12:20:06;117.03;;;59.83;;
7365;SDS011;3723;52.220;8.792;2023-07-16T12:22:39;219.97;;;198.40;;
7365;SDS011;3723;52.220;8.792;2023-07-16T12:25:06;159.03;;;134.27;;
7365;SDS011;3723;52.220;8.792;2023-07-16T12:27:33;107.40;;;42.67;;
7365;SDS011;3723;52.220;8.792;2023-07-16T12:30:00;86.57;;;11.10;;
7365;SDS011;3723;52.220;8.792;2023-07-16T12:32:27;82.37;;;11.70;;
7365;SDS011;3723;52.220;8.792;2023-07-16T12:34:54;101.23;;;32.63;;
7365;SDS011;3723;52.220;8.792;2023-07-16T12:37:22;76.00;;;4.73;;
7365;SDS011;3723;52.220;8.792;2023-07-16T12:39:52;82.13;;;8.13;;
7365;SDS011;3723;52.220;8.792;2023-07-16T12:42:19;79.50;;;6.50;;
7365;SDS011;3723;52.220;8.792;2023-07-16T12:44:46;79.27;;;5.47;;
7365;SDS011;3723;52.220;8.792;2023-07-16T12:47:14;88.83;;;26.53;;
7365;SDS011;3723;52.220;8.792;2023-07-16T12:49:41;150.33;;;119.93;;
7365;SDS011;3723;52.220;8.792;2023-07-16T12:52:08;81.40;;;12.33;;
7365;SDS011;3723;52.220;8.792;2023-07-16T12:54:35;78.00;;;6.50;;
7365;SDS011;3723;52.220;8.792;2023-07-16T12:57:04;83.80;;;11.20;;
7365;SDS011;3723;52.220;8.792;2023-07-16T12:59:31;80.70;;;5.70;;
7365;SDS011;3723;52.220;8.792;2023-07-16T13:01:59;84.13;;;14.67;;
7365;SDS011;3723;52.220;8.792;2023-07-16T13:04:25;79.03;;;9.90;;
7365;SDS011;3723;52.220;8.792;2023-07-16T13:06:52;110.67;;;52.43;;
7365;SDS011;3723;52.220;8.792;2023-07-16T13:09:19;360.90;;;329.07;;
7365;SDS011;3723;52.220;8.792;2023-07-16T13:11:48;450.47;;;413.57;;
7365;SDS011;3723;52.220;8.792;2023-07-16T13:14:17;118.07;;;63.80;;
7365;SDS011;3723;52.220;8.792;2023-07-16T13:16:44;77.10;;;7.27;;
7365;SDS011;3723;52.220;8.792;2023-07-16T13:19:11;77.03;;;4.47;;
7365;SDS011;3723;52.220;8.792;2023-07-16T13:21:38;78.53;;;5.57;;
7365;SDS011;3723;52.220;8.792;2023-07-16T13:24:05;77.50;;;4.80;;
7365;SDS011;3723;52.220;8.792;2023-07-16T13:26:32;87.33;;;15.67;;
7365;SDS011;3723;52.220;8.792;2023-07-16T13:29:00;130.37;;;86.33;;
7365;SDS011;3723;52.220;8.792;2023-07-16T13:31:28;86.70;;;19.47;;
7365;SDS011;3723;52.220;8.792;2023-07-16T13:34:05;81.90;;;10.00;;
7365;SDS011;3723;52.220;8.792;2023-07-16T13:36:32;121.90;;;71.27;;
7365;SDS011;3723;52.220;8.792;2023-07-16T13:38:59;108.87;;;49.47;;
7365;SDS011;3723;52.220;8.792;2023-07-16T13:41:26;103.33;;;50.80;;
7365;SDS011;3723;52.220;8.792;2023-07-16T13:43:53;88.07;;;15.00;;
7365;SDS011;3723;52.220;8.792;2023-07-16T13:46:19;80.00;;;5.47;;
7365;SDS011;3723;52.220;8.792;2023-07-16T13:48:50;79.77;;;4.67;;
7365;SDS011;3723;52.220;8.792;2023-07-16T13:51:17;79.53;;;9.07;;
7365;SDS011;3723;52.220;8.792;2023-07-16T13:53:47;91.47;;;31.37;;
7365;SDS011;3723;52.220;8.792;2023-07-16T13:56:14;100.17;;;46.07;;
7365;SDS011;3723;52.220;8.792;2023-07-16T13:58:41;101.57;;;33.30;;
7365;SDS011;3723;52.220;8.792;2023-07-16T14:01:08;82.03;;;10.47;;
7365;SDS011;3723;52.220;8.792;2023-07-16T14:03:38;147.63;;;116.23;;
7365;SDS011;3723;52.220;8.792;2023-07-16T14:06:07;220.60;;;199.33;;
7365;SDS011;3723;52.220;8.792;2023-07-16T14:08:33;216.73;;;195.83;;
7365;SDS011;3723;52.220;8.792;2023-07-16T14:11:01;167.93;;;149.23;;
7365;SDS011;3723;52.220;8.792;2023-07-16T14:13:28;153.40;;;129.47;;
7365;SDS011;3723;52.220;8.792;2023-07-16T14:15:59;99.03;;;30.90;;
7365;SDS011;3723;52.220;8.792;2023-07-16T14:18:28;113.03;;;50.53;;
7365;SDS011;3723;52.220;8.792;2023-07-16T14:20:56;99.87;;;30.67;;
7365;SDS011;3723;52.220;8.792;2023-07-16T14:23:29;147.37;;;121.87;;
7365;SDS011;3723;52.220;8.792;2023-07-16T14:25:56;149.60;;;133.10;;
7365;SDS011;3723;52.220;8.792;2023-07-16T14:28:23;203.93;;;183.40;;
7365;SDS011;3723;52.220;8.792;2023-07-16T14:30:50;188.30;;;168.50;;
7365;SDS011;3723;52.220;8.792;2023-07-16T14:33:20;86.13;;;19.67;;
7365;SDS011;3723;52.220;8.792;2023-07-16T14:35:49;84.93;;;15.27;;
7365;SDS011;3723;52.220;8.792;2023-07-16T14:38:16;90.40;;;20.40;;
7365;SDS011;3723;52.220;8.792;2023-07-16T14:40:45;77.60;;;4.17;;
7365;SDS011;3723;52.220;8.792;2023-07-16T14:43:18;92.50;;;26.97;;
7365;SDS011;3723;52.220;8.792;2023-07-16T14:45:45;83.83;;;12.83;;
7365;SDS011;3723;52.220;8.792;2023-07-16T14:48:12;96.87;;;30.90;;
7365;SDS011;3723;52.220;8.792;2023-07-16T14:50:42;75.37;;;4.93;;
7365;SDS011;3723;52.220;8.792;2023-07-16T14:53:14;126.97;;;77.73;;
7365;SDS011;3723;52.220;8.792;2023-07-16T14:55:45;103.07;;;42.67;;
7365;SDS011;3723;52.220;8.792;2023-07-16T14:58:14;159.40;;;130.93;;
7365;SDS011;3723;52.220;8.792;2023-07-16T15:00:47;181.63;;;162.17;;
7365;SDS011;3723;52.220;8.792;2023-07-16T15:03:14;126.67;;;83.23;;
7365;SDS011;3723;52.220;8.792;2023-07-16T15:05:43;130.13;;;87.37;;
7365;SDS011;3723;52.220;8.792;2023-07-16T15:08:11;79.93;;;10.57;;
7365;SDS011;3723;52.220;8.792;2023-07-16T15:10:38;76.50;;;4.20;;
7365;SDS011;3723;52.220;8.792;2023-07-16T15:13:26;83.27;;;14.87;;
7365;SDS011;3723;52.220;8.792;2023-07-16T15:15:57;78.17;;;5.53;;
7365;SDS011;3723;52.220;8.792;2023-07-16T15:18:24;76.60;;;4.60;;
7365;SDS011;3723;52.220;8.792;2023-07-16T15:20:55;79.10;;;9.87;;
7365;SDS011;3723;52.220;8.792;2023-07-16T15:23:27;79.83;;;9.60;;
7365;SDS011;3723;52.220;8.792;2023-07-16T15:25:54;77.53;;;6.20;;
7365;SDS011;3723;52.220;8.792;2023-07-16T15:28:33;80.17;;;10.73;;
7365;SDS011;3723;52.220;8.792;2023-07-16T15:31:03;77.53;;;4.60;;
7365;SDS011;3723;52.220;8.792;2023-07-16T15:33:30;79.27;;;8.20;;
7365;SDS011;3723;52.220;8.792;2023-07-16T15:35:59;78.93;;;5.77;;
7365;SDS011;3723;52.220;8.792;2023-07-16T15:38:33;77.40;;;5.13;;
7365;SDS011;3723;52.220;8.792;2023-07-16T15:41:03;75.57;;;3.97;;
7365;SDS011;3723;52.220;8.792;2023-07-16T15:43:32;76.87;;;4.20;;
7365;SDS011;3723;52.220;8.792;2023-07-16T15:46:02;103.13;;;43.23;;
7365;SDS011;3723;52.220;8.792;2023-07-16T15:48:29;89.90;;;17.83;;
7365;SDS011;3723;52.220;8.792;2023-07-16T15:50:56;77.03;;;7.03;;
7365;SDS011;3723;52.220;8.792;2023-07-16T15:53:24;76.80;;;4.73;;
7365;SDS011;3723;52.220;8.792;2023-07-16T15:55:51;78.77;;;6.60;;
7365;SDS011;3723;52.220;8.792;2023-07-16T15:58:19;78.07;;;6.93;;
7365;SDS011;3723;52.220;8.792;2023-07-16T16:00:47;77.23;;;5.50;;
7365;SDS011;3723;52.220;8.792;2023-07-16T16:03:15;81.70;;;12.20;;
7365;SDS011;3723;52.220;8.792;2023-07-16T16:05:42;81.63;;;9.90;;
7365;SDS011;3723;52.220;8.792;2023-07-16T16:08:13;88.50;;;16.77;;